sensor_id;sensor_type;location;lat;lon;timestamp;temperature;humidity
46137;DHT22;31871;49.418;8.752;2022-11-15T00:00:04;9.00;99.90
46137;DHT22;31871;49.418;8.752;2022-11-15T00:02:30;8.90;99.90
46137;DHT22;31871;49.418;8.752;2022-11-15T00:04:56;8.90;99.90
46137;DHT22;31871;49.418;8.752;2022-11-15T00:07:21;8.80;99.90
46137;DHT22;31871;49.418;8.752;2022-11-15T00:09:47;8.80;99.90
46137;DHT22;31871;49.418;8.752;2022-11-15T00:12:12;8.80;99.90
46137;DHT22;31871;49.418;8.752;2022-11-15T00:14:38;8.90;99.90
46137;DHT22;31871;49.418;8.752;2022-11-15T00:17:04;8.80;99.90
46137;DHT22;31871;49.418;8.752;2022-11-15T00:19:29;8.90;99.90
46137;DHT22;31871;49.418;8.752;2022-11-15T00:21:55;8.90;99.90
46137;DHT22;31871;49.418;8.752;2022-11-15T00:24:20;8.90;99.90
46137;DHT22;31871;49.418;8.752;2022-11-15T00:26:46;8.80;99.90
46137;DHT22;31871;49.418;8.752;2022-11-15T00:29:11;8.80;99.90
46137;DHT22;31871;49.418;8.752;2022-11-15T00:31:37;8.80;99.90
46137;DHT22;31871;49.418;8.752;2022-11-15T00:34:02;8.80;99.90
46137;DHT22;31871;49.418;8.752;2022-11-15T00:36:28;8.80;99.90
46137;DHT22;31871;49.418;8.752;2022-11-15T00:38:54;8.80;99.90
46137;DHT22;31871;49.418;8.752;2022-11-15T00:41:19;8.80;99.90
46137;DHT22;31871;49.418;8.752;2022-11-15T00:43:45;8.70;99.90
46137;DHT22;31871;49.418;8.752;2022-11-15T00:46:10;8.70;99.90
46137;DHT22;31871;49.418;8.752;2022-11-15T00:48:36;8.70;99.90
46137;DHT22;31871;49.418;8.752;2022-11-15T00:51:02;8.70;99.90
46137;DHT22;31871;49.418;8.752;2022-11-15T00:53:27;8.70;99.90
46137;DHT22;31871;49.418;8.752;2022-11-15T00:55:53;8.70;99.90
46137;DHT22;31871;49.418;8.752;2022-11-15T00:58:19;8.70;99.90
46137;DHT22;31871;49.418;8.752;2022-11-15T01:00:44;8.60;99.90
46137;DHT22;31871;49.418;8.752;2022-11-15T01:03:10;8.60;99.90
46137;DHT22;31871;49.418;8.752;2022-11-15T01:05:37;8.50;99.90
46137;DHT22;31871;49.418;8.752;2022-11-15T01:08:03;8.50;99.90
46137;DHT22;31871;49.418;8.752;2022-11-15T01:10:29;8.50;99.90
46137;DHT22;31871;49.418;8.752;2022-11-15T01:12:55;8.50;99.90
46137;DHT22;31871;49.418;8.752;2022-11-15T01:15:20;8.50;99.90
46137;DHT22;31871;49.418;8.752;2022-11-15T01:17:46;8.50;99.90
46137;DHT22;31871;49.418;8.752;2022-11-15T01:20:12;8.40;99.90
46137;DHT22;31871;49.418;8.752;2022-11-15T01:22:37;8.40;99.90
46137;DHT22;31871;49.418;8.752;2022-11-15T01:25:03;8.40;99.90
46137;DHT22;31871;49.418;8.752;2022-11-15T01:27:28;8.40;99.90
46137;DHT22;31871;49.418;8.752;2022-11-15T01:29:54;8.30;99.90
46137;DHT22;31871;49.418;8.752;2022-11-15T01:32:19;8.40;99.90
46137;DHT22;31871;49.418;8.752;2022-11-15T01:34:45;8.30;99.90
46137;DHT22;31871;49.418;8.752;2022-11-15T01:37:10;8.30;99.90
46137;DHT22;31871;49.418;8.752;2022-11-15T01:39:36;8.30;99.90
46137;DHT22;31871;49.418;8.752;2022-11-15T01:42:02;8.30;99.90
46137;DHT22;31871;49.418;8.752;2022-11-15T01:46:57;8.20;99.90
46137;DHT22;31871;49.418;8.752;2022-11-15T01:49:23;8.20;99.90
46137;DHT22;31871;49.418;8.752;2022-11-15T01:51:49;8.20;99.90
46137;DHT22;31871;49.418;8.752;2022-11-15T01:54:17;8.30;99.90
46137;DHT22;31871;49.418;8.752;2022-11-15T01:56:54;8.30;99.90
46137;DHT22;31871;49.418;8.752;2022-11-15T01:59:22;8.30;99.90
46137;DHT22;31871;49.418;8.752;2022-11-15T02:01:48;8.30;99.90
46137;DHT22;31871;49.418;8.752;2022-11-15T02:04:16;8.30;99.90
46137;DHT22;31871;49.418;8.752;2022-11-15T02:06:44;8.30;99.90
46137;DHT22;31871;49.418;8.752;2022-11-15T02:09:11;8.30;99.90
46137;DHT22;31871;49.418;8.752;2022-11-15T02:11:37;8.20;99.90
46137;DHT22;31871;49.418;8.752;2022-11-15T02:14:03;8.30;99.90
46137;DHT22;31871;49.418;8.752;2022-11-15T02:36:15;8.20;99.90
46137;DHT22;31871;49.418;8.752;2022-11-15T02:39:02;8.10;99.90
46137;DHT22;31871;49.418;8.752;2022-11-15T02:41:38;8.10;99.90
46137;DHT22;31871;49.418;8.752;2022-11-15T02:44:12;8.00;99.90
46137;DHT22;31871;49.418;8.752;2022-11-15T02:46:49;8.00;99.90
46137;DHT22;31871;49.418;8.752;2022-11-15T02:49:36;8.00;99.90
46137;DHT22;31871;49.418;8.752;2022-11-15T02:52:03;8.00;99.90
46137;DHT22;31871;49.418;8.752;2022-11-15T02:54:31;8.00;99.90
46137;DHT22;31871;49.418;8.752;2022-11-15T02:57:02;8.00;99.90
46137;DHT22;31871;49.418;8.752;2022-11-15T02:59:52;8.00;99.90
46137;DHT22;31871;49.418;8.752;2022-11-15T03:05:41;7.90;99.90
46137;DHT22;31871;49.418;8.752;2022-11-15T03:13:26;7.90;99.90
46137;DHT22;31871;49.418;8.752;2022-11-15T03:19:10;7.90;99.90
46137;DHT22;31871;49.418;8.752;2022-11-15T03:21:39;7.90;99.90
46137;DHT22;31871;49.418;8.752;2022-11-15T03:24:06;7.90;99.90
46137;DHT22;31871;49.418;8.752;2022-11-15T03:26:34;7.90;99.90
46137;DHT22;31871;49.418;8.752;2022-11-15T03:29:08;7.90;99.90
46137;DHT22;31871;49.418;8.752;2022-11-15T03:31:37;7.80;99.90
46137;DHT22;31871;49.418;8.752;2022-11-15T03:36:57;7.80;99.90
46137;DHT22;31871;49.418;8.752;2022-11-15T03:39:23;7.80;99.90
46137;DHT22;31871;49.418;8.752;2022-11-15T03:42:02;7.80;99.90
46137;DHT22;31871;49.418;8.752;2022-11-15T03:47:36;7.80;99.90
46137;DHT22;31871;49.418;8.752;2022-11-15T03:50:12;7.80;99.90
46137;DHT22;31871;49.418;8.752;2022-11-15T03:52:40;7.90;99.90
46137;DHT22;31871;49.418;8.752;2022-11-15T03:55:08;7.90;99.90
46137;DHT22;31871;49.418;8.752;2022-11-15T03:57:35;7.90;99.90
46137;DHT22;31871;49.418;8.752;2022-11-15T04:00:01;7.90;99.90
46137;DHT22;31871;49.418;8.752;2022-11-15T04:02:26;8.00;99.90
46137;DHT22;31871;49.418;8.752;2022-11-15T04:04:53;8.00;99.90
46137;DHT22;31871;49.418;8.752;2022-11-15T04:07:18;8.00;99.90
46137;DHT22;31871;49.418;8.752;2022-11-15T04:09:44;8.00;99.90
46137;DHT22;31871;49.418;8.752;2022-11-15T04:12:29;8.00;99.90
46137;DHT22;31871;49.418;8.752;2022-11-15T04:15:07;8.00;99.90
46137;DHT22;31871;49.418;8.752;2022-11-15T04:17:54;8.00;99.90
46137;DHT22;31871;49.418;8.752;2022-11-15T04:20:25;8.00;99.90
46137;DHT22;31871;49.418;8.752;2022-11-15T04:23:17;8.00;99.90
46137;DHT22;31871;49.418;8.752;2022-11-15T04:26:04;8.10;99.90
46137;DHT22;31871;49.418;8.752;2022-11-15T04:28:30;8.10;99.90
46137;DHT22;31871;49.418;8.752;2022-11-15T04:30:56;8.10;99.90
46137;DHT22;31871;49.418;8.752;2022-11-15T04:33:22;8.10;99.90
46137;DHT22;31871;49.418;8.752;2022-11-15T04:35:48;8.10;99.90
46137;DHT22;31871;49.418;8.752;2022-11-15T04:38:34;8.10;99.90
46137;DHT22;31871;49.418;8.752;2022-11-15T04:41:00;8.10;99.90
46137;DHT22;31871;49.418;8.752;2022-11-15T04:43:25;8.10;99.90
46137;DHT22;31871;49.418;8.752;2022-11-15T04:45:51;8.20;99.90
46137;DHT22;31871;49.418;8.752;2022-11-15T04:48:17;8.10;99.90
46137;DHT22;31871;49.418;8.752;2022-11-15T04:50:42;8.10;99.90
46137;DHT22;31871;49.418;8.752;2022-11-15T04:53:08;8.10;99.90
46137;DHT22;31871;49.418;8.752;2022-11-15T04:55:33;8.10;99.90
46137;DHT22;31871;49.418;8.752;2022-11-15T04:57:59;8.10;99.90
46137;DHT22;31871;49.418;8.752;2022-11-15T05:00:26;8.10;99.90
46137;DHT22;31871;49.418;8.752;2022-11-15T05:02:51;8.10;99.90
46137;DHT22;31871;49.418;8.752;2022-11-15T05:05:36;8.10;99.90
46137;DHT22;31871;49.418;8.752;2022-11-15T05:08:02;8.20;99.90
46137;DHT22;31871;49.418;8.752;2022-11-15T05:10:27;8.10;99.90
46137;DHT22;31871;49.418;8.752;2022-11-15T05:12:53;8.10;99.90
46137;DHT22;31871;49.418;8.752;2022-11-15T05:15:18;8.10;99.90
46137;DHT22;31871;49.418;8.752;2022-11-15T05:17:44;8.10;99.90
46137;DHT22;31871;49.418;8.752;2022-11-15T05:20:10;8.20;99.90
46137;DHT22;31871;49.418;8.752;2022-11-15T05:22:36;8.10;99.90
46137;DHT22;31871;49.418;8.752;2022-11-15T05:25:01;8.20;99.90
46137;DHT22;31871;49.418;8.752;2022-11-15T05:27:27;8.10;99.90
46137;DHT22;31871;49.418;8.752;2022-11-15T05:29:52;8.10;99.90
46137;DHT22;31871;49.418;8.752;2022-11-15T05:32:18;8.10;99.90
46137;DHT22;31871;49.418;8.752;2022-11-15T05:34:44;8.20;99.90
46137;DHT22;31871;49.418;8.752;2022-11-15T05:37:10;8.30;99.90
46137;DHT22;31871;49.418;8.752;2022-11-15T05:39:36;8.40;99.90
46137;DHT22;31871;49.418;8.752;2022-11-15T05:42:15;8.40;99.90
46137;DHT22;31871;49.418;8.752;2022-11-15T05:44:47;8.40;99.90
46137;DHT22;31871;49.418;8.752;2022-11-15T05:47:17;8.40;99.90
46137;DHT22;31871;49.418;8.752;2022-11-15T05:49:44;8.30;99.90
46137;DHT22;31871;49.418;8.752;2022-11-15T05:52:13;8.30;99.90
46137;DHT22;31871;49.418;8.752;2022-11-15T05:54:40;8.30;99.90
46137;DHT22;31871;49.418;8.752;2022-11-15T05:57:06;8.30;99.90
46137;DHT22;31871;49.418;8.752;2022-11-15T05:59:32;8.30;99.90
46137;DHT22;31871;49.418;8.752;2022-11-15T06:01:58;8.30;99.90
46137;DHT22;31871;49.418;8.752;2022-11-15T06:04:24;8.20;99.90
46137;DHT22;31871;49.418;8.752;2022-11-15T06:06:50;8.20;99.90
46137;DHT22;31871;49.418;8.752;2022-11-15T06:09:15;8.30;99.90
46137;DHT22;31871;49.418;8.752;2022-11-15T06:11:41;8.30;99.90
46137;DHT22;31871;49.418;8.752;2022-11-15T06:14:06;8.30;99.90
46137;DHT22;31871;49.418;8.752;2022-11-15T06:16:32;8.30;99.90
46137;DHT22;31871;49.418;8.752;2022-11-15T06:18:58;8.30;99.90
46137;DHT22;31871;49.418;8.752;2022-11-15T06:21:23;8.30;99.90
46137;DHT22;31871;49.418;8.752;2022-11-15T06:23:49;8.30;99.90
46137;DHT22;31871;49.418;8.752;2022-11-15T06:26:14;8.30;99.90
46137;DHT22;31871;49.418;8.752;2022-11-15T06:28:40;8.30;99.90
46137;DHT22;31871;49.418;8.752;2022-11-15T06:31:08;8.30;99.90
46137;DHT22;31871;49.418;8.752;2022-11-15T06:33:34;8.30;99.90
46137;DHT22;31871;49.418;8.752;2022-11-15T06:36:05;8.40;99.90
46137;DHT22;31871;49.418;8.752;2022-11-15T06:38:31;8.40;99.90
46137;DHT22;31871;49.418;8.752;2022-11-15T06:41:04;8.40;99.90
46137;DHT22;31871;49.418;8.752;2022-11-15T06:43:29;8.40;99.90
46137;DHT22;31871;49.418;8.752;2022-11-15T06:45:55;8.40;99.90
46137;DHT22;31871;49.418;8.752;2022-11-15T06:48:21;8.40;99.90
46137;DHT22;31871;49.418;8.752;2022-11-15T06:50:57;8.40;99.90
46137;DHT22;31871;49.418;8.752;2022-11-15T06:53:23;8.40;99.90
46137;DHT22;31871;49.418;8.752;2022-11-15T06:55:49;8.40;99.90
46137;DHT22;31871;49.418;8.752;2022-11-15T06:58:15;8.40;99.90
46137;DHT22;31871;49.418;8.752;2022-11-15T07:00:41;8.40;99.90
46137;DHT22;31871;49.418;8.752;2022-11-15T07:03:07;8.40;99.90
46137;DHT22;31871;49.418;8.752;2022-11-15T07:05:33;8.40;99.90
46137;DHT22;31871;49.418;8.752;2022-11-15T07:07:58;8.40;99.90
46137;DHT22;31871;49.418;8.752;2022-11-15T07:10:25;8.40;99.90
46137;DHT22;31871;49.418;8.752;2022-11-15T07:12:55;8.50;99.90
46137;DHT22;31871;49.418;8.752;2022-11-15T07:15:23;8.50;99.90
46137;DHT22;31871;49.418;8.752;2022-11-15T07:17:48;8.40;99.90
46137;DHT22;31871;49.418;8.752;2022-11-15T07:20:14;8.50;99.90
46137;DHT22;31871;49.418;8.752;2022-11-15T07:22:41;8.50;99.90
46137;DHT22;31871;49.418;8.752;2022-11-15T07:25:07;8.60;99.90
46137;DHT22;31871;49.418;8.752;2022-11-15T07:27:33;8.60;99.90
46137;DHT22;31871;49.418;8.752;2022-11-15T07:29:59;8.60;99.90
46137;DHT22;31871;49.418;8.752;2022-11-15T07:32:25;8.60;99.90
46137;DHT22;31871;49.418;8.752;2022-11-15T07:34:51;8.60;99.90
46137;DHT22;31871;49.418;8.752;2022-11-15T07:37:17;8.60;99.90
46137;DHT22;31871;49.418;8.752;2022-11-15T07:39:43;8.60;99.90
46137;DHT22;31871;49.418;8.752;2022-11-15T07:42:09;8.70;99.90
46137;DHT22;31871;49.418;8.752;2022-11-15T07:44:53;8.70;99.90
46137;DHT22;31871;49.418;8.752;2022-11-15T07:47:18;8.70;99.90
46137;DHT22;31871;49.418;8.752;2022-11-15T07:49:44;8.70;99.90
46137;DHT22;31871;49.418;8.752;2022-11-15T07:52:11;8.70;99.90
46137;DHT22;31871;49.418;8.752;2022-11-15T07:54:37;8.80;99.90
46137;DHT22;31871;49.418;8.752;2022-11-15T07:57:03;8.80;99.90
46137;DHT22;31871;49.418;8.752;2022-11-15T07:59:28;8.80;99.90
46137;DHT22;31871;49.418;8.752;2022-11-15T08:01:54;8.80;99.90
46137;DHT22;31871;49.418;8.752;2022-11-15T08:04:19;8.80;99.90
46137;DHT22;31871;49.418;8.752;2022-11-15T08:06:45;8.90;99.90
46137;DHT22;31871;49.418;8.752;2022-11-15T08:09:11;8.90;99.90
46137;DHT22;31871;49.418;8.752;2022-11-15T08:11:37;8.90;99.90
46137;DHT22;31871;49.418;8.752;2022-11-15T08:14:02;8.90;99.90
46137;DHT22;31871;49.418;8.752;2022-11-15T08:16:28;9.00;99.90
46137;DHT22;31871;49.418;8.752;2022-11-15T08:18:54;9.00;99.90
46137;DHT22;31871;49.418;8.752;2022-11-15T08:21:20;9.00;99.90
46137;DHT22;31871;49.418;8.752;2022-11-15T08:23:46;9.10;99.90
46137;DHT22;31871;49.418;8.752;2022-11-15T08:26:12;9.20;99.90
46137;DHT22;31871;49.418;8.752;2022-11-15T08:28:37;9.20;99.90
46137;DHT22;31871;49.418;8.752;2022-11-15T08:31:04;9.20;99.90
46137;DHT22;31871;49.418;8.752;2022-11-15T08:33:30;9.20;99.90
46137;DHT22;31871;49.418;8.752;2022-11-15T08:35:57;9.20;99.90
46137;DHT22;31871;49.418;8.752;2022-11-15T08:38:23;9.20;99.90
46137;DHT22;31871;49.418;8.752;2022-11-15T08:40:51;9.10;99.90
46137;DHT22;31871;49.418;8.752;2022-11-15T08:43:17;9.20;99.90
46137;DHT22;31871;49.418;8.752;2022-11-15T08:45:42;9.20;99.90
46137;DHT22;31871;49.418;8.752;2022-11-15T08:48:08;9.20;99.90
46137;DHT22;31871;49.418;8.752;2022-11-15T08:50:34;9.20;99.90
46137;DHT22;31871;49.418;8.752;2022-11-15T08:53:07;9.30;99.90
46137;DHT22;31871;49.418;8.752;2022-11-15T08:55:35;9.30;99.90
46137;DHT22;31871;49.418;8.752;2022-11-15T08:58:01;9.30;99.90
46137;DHT22;31871;49.418;8.752;2022-11-15T09:00:26;9.30;99.90
46137;DHT22;31871;49.418;8.752;2022-11-15T09:02:52;9.30;99.90
46137;DHT22;31871;49.418;8.752;2022-11-15T09:05:17;9.40;99.90
46137;DHT22;31871;49.418;8.752;2022-11-15T09:07:43;9.40;99.90
46137;DHT22;31871;49.418;8.752;2022-11-15T09:10:09;9.40;99.90
46137;DHT22;31871;49.418;8.752;2022-11-15T09:12:34;9.50;99.90
46137;DHT22;31871;49.418;8.752;2022-11-15T09:15:00;9.50;99.90
46137;DHT22;31871;49.418;8.752;2022-11-15T09:17:25;9.50;99.90
46137;DHT22;31871;49.418;8.752;2022-11-15T09:19:51;9.60;99.90
46137;DHT22;31871;49.418;8.752;2022-11-15T09:22:16;9.60;99.90
46137;DHT22;31871;49.418;8.752;2022-11-15T09:24:42;9.60;99.90
46137;DHT22;31871;49.418;8.752;2022-11-15T09:27:07;9.60;99.90
46137;DHT22;31871;49.418;8.752;2022-11-15T09:29:33;9.60;99.90
46137;DHT22;31871;49.418;8.752;2022-11-15T09:31:59;9.60;99.90
46137;DHT22;31871;49.418;8.752;2022-11-15T09:34:24;9.70;99.90
46137;DHT22;31871;49.418;8.752;2022-11-15T09:36:50;9.70;99.90
46137;DHT22;31871;49.418;8.752;2022-11-15T09:39:15;9.80;99.90
46137;DHT22;31871;49.418;8.752;2022-11-15T09:44:35;9.80;99.90
46137;DHT22;31871;49.418;8.752;2022-11-15T09:49:32;10.00;99.90
46137;DHT22;31871;49.418;8.752;2022-11-15T09:51:57;10.10;99.90
46137;DHT22;31871;49.418;8.752;2022-11-15T09:56:48;10.20;99.90
46137;DHT22;31871;49.418;8.752;2022-11-15T10:04:21;10.30;99.90
46137;DHT22;31871;49.418;8.752;2022-11-15T10:06:59;10.30;99.90
46137;DHT22;31871;49.418;8.752;2022-11-15T10:09:28;10.40;99.90
46137;DHT22;31871;49.418;8.752;2022-11-15T10:11:55;10.40;99.90
46137;DHT22;31871;49.418;8.752;2022-11-15T10:14:22;10.40;99.90
46137;DHT22;31871;49.418;8.752;2022-11-15T10:19:25;10.60;99.90
46137;DHT22;31871;49.418;8.752;2022-11-15T10:24:25;10.60;99.90
46137;DHT22;31871;49.418;8.752;2022-11-15T10:26:53;10.60;99.90
46137;DHT22;31871;49.418;8.752;2022-11-15T10:29:20;10.60;99.90
46137;DHT22;31871;49.418;8.752;2022-11-15T10:31:45;10.80;99.90
46137;DHT22;31871;49.418;8.752;2022-11-15T10:34:12;10.70;99.90
46137;DHT22;31871;49.418;8.752;2022-11-15T10:36:38;10.70;99.90
46137;DHT22;31871;49.418;8.752;2022-11-15T10:39:10;10.80;99.90
46137;DHT22;31871;49.418;8.752;2022-11-15T10:41:37;10.70;99.90
46137;DHT22;31871;49.418;8.752;2022-11-15T10:44:08;10.80;99.90
46137;DHT22;31871;49.418;8.752;2022-11-15T10:46:35;10.80;99.90
46137;DHT22;31871;49.418;8.752;2022-11-15T10:49:11;10.80;99.90
46137;DHT22;31871;49.418;8.752;2022-11-15T10:51:42;10.80;99.90
46137;DHT22;31871;49.418;8.752;2022-11-15T10:54:08;10.90;99.90
46137;DHT22;31871;49.418;8.752;2022-11-15T10:56:35;10.90;99.90
46137;DHT22;31871;49.418;8.752;2022-11-15T10:59:00;11.00;99.90
46137;DHT22;31871;49.418;8.752;2022-11-15T11:01:27;11.00;99.90
46137;DHT22;31871;49.418;8.752;2022-11-15T11:04:04;11.00;99.90
46137;DHT22;31871;49.418;8.752;2022-11-15T11:06:29;11.20;99.90
46137;DHT22;31871;49.418;8.752;2022-11-15T11:08:57;11.20;99.90
46137;DHT22;31871;49.418;8.752;2022-11-15T11:11:23;11.20;99.90
46137;DHT22;31871;49.418;8.752;2022-11-15T11:13:48;11.20;99.90
46137;DHT22;31871;49.418;8.752;2022-11-15T11:21:13;11.40;99.90
46137;DHT22;31871;49.418;8.752;2022-11-15T11:28:52;11.50;99.90
46137;DHT22;31871;49.418;8.752;2022-11-15T11:31:24;11.60;99.90
46137;DHT22;31871;49.418;8.752;2022-11-15T11:36:39;11.90;99.90
46137;DHT22;31871;49.418;8.752;2022-11-15T11:44:16;12.10;99.90
46137;DHT22;31871;49.418;8.752;2022-11-15T11:46:48;12.20;99.90
46137;DHT22;31871;49.418;8.752;2022-11-15T11:52:22;12.40;99.90
46137;DHT22;31871;49.418;8.752;2022-11-15T11:57:25;12.50;99.90
46137;DHT22;31871;49.418;8.752;2022-11-15T11:59:56;12.60;99.90
46137;DHT22;31871;49.418;8.752;2022-11-15T12:02:29;12.70;99.90
46137;DHT22;31871;49.418;8.752;2022-11-15T12:04:58;12.80;99.90
46137;DHT22;31871;49.418;8.752;2022-11-15T12:07:28;12.80;99.90
46137;DHT22;31871;49.418;8.752;2022-11-15T12:12:45;12.70;99.90
46137;DHT22;31871;49.418;8.752;2022-11-15T12:15:14;12.70;99.90
46137;DHT22;31871;49.418;8.752;2022-11-15T12:17:41;12.70;99.90
46137;DHT22;31871;49.418;8.752;2022-11-15T12:20:14;12.70;99.90
46137;DHT22;31871;49.418;8.752;2022-11-15T12:22:44;12.70;99.90
46137;DHT22;31871;49.418;8.752;2022-11-15T12:25:16;12.70;99.90
46137;DHT22;31871;49.418;8.752;2022-11-15T12:27:49;12.60;99.90
46137;DHT22;31871;49.418;8.752;2022-11-15T12:30:17;12.60;99.90
46137;DHT22;31871;49.418;8.752;2022-11-15T12:33:44;12.50;99.90
46137;DHT22;31871;49.418;8.752;2022-11-15T12:35:41;12.50;99.90
46137;DHT22;31871;49.418;8.752;2022-11-15T12:38:11;12.50;99.90
46137;DHT22;31871;49.418;8.752;2022-11-15T12:40:38;12.50;99.90
46137;DHT22;31871;49.418;8.752;2022-11-15T12:45:39;12.40;99.90
46137;DHT22;31871;49.418;8.752;2022-11-15T12:58:45;12.60;99.90
46137;DHT22;31871;49.418;8.752;2022-11-15T13:04:08;12.60;99.90
46137;DHT22;31871;49.418;8.752;2022-11-15T13:06:49;12.70;99.90
46137;DHT22;31871;49.418;8.752;2022-11-15T13:12:08;12.70;99.90
46137;DHT22;31871;49.418;8.752;2022-11-15T13:17:00;12.80;99.90
46137;DHT22;31871;49.418;8.752;2022-11-15T13:19:25;12.70;99.90
46137;DHT22;31871;49.418;8.752;2022-11-15T13:21:51;12.70;99.90
46137;DHT22;31871;49.418;8.752;2022-11-15T13:24:37;12.70;99.90
46137;DHT22;31871;49.418;8.752;2022-11-15T13:27:10;12.70;99.90
46137;DHT22;31871;49.418;8.752;2022-11-15T13:29:36;12.70;99.90
46137;DHT22;31871;49.418;8.752;2022-11-15T13:32:01;12.70;99.90
46137;DHT22;31871;49.418;8.752;2022-11-15T13:34:28;12.70;99.90
46137;DHT22;31871;49.418;8.752;2022-11-15T13:36:54;12.70;99.90
46137;DHT22;31871;49.418;8.752;2022-11-15T13:41:49;12.70;99.90
46137;DHT22;31871;49.418;8.752;2022-11-15T13:44:20;12.70;99.90
46137;DHT22;31871;49.418;8.752;2022-11-15T13:46:45;12.70;99.90
46137;DHT22;31871;49.418;8.752;2022-11-15T13:49:11;12.70;99.90
46137;DHT22;31871;49.418;8.752;2022-11-15T13:51:42;12.70;99.90
46137;DHT22;31871;49.418;8.752;2022-11-15T13:56:33;12.70;99.90
46137;DHT22;31871;49.418;8.752;2022-11-15T13:59:00;12.80;99.90
46137;DHT22;31871;49.418;8.752;2022-11-15T14:01:26;12.90;99.90
46137;DHT22;31871;49.418;8.752;2022-11-15T14:03:58;12.90;99.90
46137;DHT22;31871;49.418;8.752;2022-11-15T14:06:24;12.90;99.90
46137;DHT22;31871;49.418;8.752;2022-11-15T14:11:34;12.90;99.90
46137;DHT22;31871;49.418;8.752;2022-11-15T14:16:35;12.90;99.90
46137;DHT22;31871;49.418;8.752;2022-11-15T14:19:01;12.90;99.90
46137;DHT22;31871;49.418;8.752;2022-11-15T14:21:27;12.90;99.90
46137;DHT22;31871;49.418;8.752;2022-11-15T14:23:53;12.80;99.90
46137;DHT22;31871;49.418;8.752;2022-11-15T14:26:38;12.80;99.90
46137;DHT22;31871;49.418;8.752;2022-11-15T14:31:47;13.00;99.90
46137;DHT22;31871;49.418;8.752;2022-11-15T14:34:13;12.90;99.90
46137;DHT22;31871;49.418;8.752;2022-11-15T14:36:38;13.00;99.90
46137;DHT22;31871;49.418;8.752;2022-11-15T14:39:04;13.00;99.90
46137;DHT22;31871;49.418;8.752;2022-11-15T14:41:33;13.00;99.90
46137;DHT22;31871;49.418;8.752;2022-11-15T14:43:59;12.90;99.90
46137;DHT22;31871;49.418;8.752;2022-11-15T14:46:25;12.80;99.90
46137;DHT22;31871;49.418;8.752;2022-11-15T14:48:50;12.70;99.90
46137;DHT22;31871;49.418;8.752;2022-11-15T14:51:16;12.70;99.90
46137;DHT22;31871;49.418;8.752;2022-11-15T14:53:42;12.70;99.90
46137;DHT22;31871;49.418;8.752;2022-11-15T14:56:08;12.60;99.90
46137;DHT22;31871;49.418;8.752;2022-11-15T14:58:34;12.60;99.90
46137;DHT22;31871;49.418;8.752;2022-11-15T15:00:59;12.50;99.90
46137;DHT22;31871;49.418;8.752;2022-11-15T15:03:25;12.50;99.90
46137;DHT22;31871;49.418;8.752;2022-11-15T15:05:50;12.60;99.90
46137;DHT22;31871;49.418;8.752;2022-11-15T15:08:15;12.50;99.90
46137;DHT22;31871;49.418;8.752;2022-11-15T15:10:42;12.60;99.90
46137;DHT22;31871;49.418;8.752;2022-11-15T15:13:18;12.50;99.90
46137;DHT22;31871;49.418;8.752;2022-11-15T15:15:44;12.50;99.90
46137;DHT22;31871;49.418;8.752;2022-11-15T15:18:10;12.50;99.90
46137;DHT22;31871;49.418;8.752;2022-11-15T15:20:37;12.50;99.90
46137;DHT22;31871;49.418;8.752;2022-11-15T15:23:03;12.40;99.90
46137;DHT22;31871;49.418;8.752;2022-11-15T15:25:30;12.40;99.90
46137;DHT22;31871;49.418;8.752;2022-11-15T15:27:57;12.50;99.90
46137;DHT22;31871;49.418;8.752;2022-11-15T15:30:22;12.40;99.90
46137;DHT22;31871;49.418;8.752;2022-11-15T15:32:48;12.30;99.90
46137;DHT22;31871;49.418;8.752;2022-11-15T15:35:14;12.40;99.90
46137;DHT22;31871;49.418;8.752;2022-11-15T15:37:39;12.30;99.90
46137;DHT22;31871;49.418;8.752;2022-11-15T15:40:13;12.30;99.90
46137;DHT22;31871;49.418;8.752;2022-11-15T15:42:39;12.40;99.90
46137;DHT22;31871;49.418;8.752;2022-11-15T15:45:04;12.30;99.90
46137;DHT22;31871;49.418;8.752;2022-11-15T15:47:30;12.30;99.90
46137;DHT22;31871;49.418;8.752;2022-11-15T15:49:55;12.30;99.90
46137;DHT22;31871;49.418;8.752;2022-11-15T15:52:21;12.30;99.90
46137;DHT22;31871;49.418;8.752;2022-11-15T15:54:46;12.30;99.90
46137;DHT22;31871;49.418;8.752;2022-11-15T15:57:12;12.30;99.90
46137;DHT22;31871;49.418;8.752;2022-11-15T15:59:38;12.30;99.90
46137;DHT22;31871;49.418;8.752;2022-11-15T16:02:04;12.30;99.90
46137;DHT22;31871;49.418;8.752;2022-11-15T16:04:30;12.30;99.90
46137;DHT22;31871;49.418;8.752;2022-11-15T16:06:59;12.30;99.90
46137;DHT22;31871;49.418;8.752;2022-11-15T16:09:24;12.20;99.90
46137;DHT22;31871;49.418;8.752;2022-11-15T16:12:08;12.20;99.90
46137;DHT22;31871;49.418;8.752;2022-11-15T16:14:34;12.10;99.90
46137;DHT22;31871;49.418;8.752;2022-11-15T16:16:59;12.20;99.90
46137;DHT22;31871;49.418;8.752;2022-11-15T16:19:24;12.20;99.90
46137;DHT22;31871;49.418;8.752;2022-11-15T16:21:50;12.20;99.90
46137;DHT22;31871;49.418;8.752;2022-11-15T16:24:17;12.10;99.90
46137;DHT22;31871;49.418;8.752;2022-11-15T16:26:43;12.10;99.90
46137;DHT22;31871;49.418;8.752;2022-11-15T16:29:09;12.10;99.90
46137;DHT22;31871;49.418;8.752;2022-11-15T16:31:35;12.10;99.90
46137;DHT22;31871;49.418;8.752;2022-11-15T16:34:00;12.10;99.90
46137;DHT22;31871;49.418;8.752;2022-11-15T16:36:26;12.10;99.90
46137;DHT22;31871;49.418;8.752;2022-11-15T16:38:51;12.20;99.90
46137;DHT22;31871;49.418;8.752;2022-11-15T16:41:17;12.20;99.90
46137;DHT22;31871;49.418;8.752;2022-11-15T16:43:44;12.20;99.90
46137;DHT22;31871;49.418;8.752;2022-11-15T16:46:14;12.10;99.90
46137;DHT22;31871;49.418;8.752;2022-11-15T16:48:40;12.10;99.90
46137;DHT22;31871;49.418;8.752;2022-11-15T16:51:06;12.00;99.90
46137;DHT22;31871;49.418;8.752;2022-11-15T16:53:31;12.00;99.90
46137;DHT22;31871;49.418;8.752;2022-11-15T16:55:57;11.90;99.90
46137;DHT22;31871;49.418;8.752;2022-11-15T16:58:22;11.80;99.90
46137;DHT22;31871;49.418;8.752;2022-11-15T17:00:54;11.80;99.90
46137;DHT22;31871;49.418;8.752;2022-11-15T17:03:21;11.80;99.90
46137;DHT22;31871;49.418;8.752;2022-11-15T17:05:46;11.80;99.90
46137;DHT22;31871;49.418;8.752;2022-11-15T17:08:12;11.70;99.90
46137;DHT22;31871;49.418;8.752;2022-11-15T17:10:38;11.80;99.90
46137;DHT22;31871;49.418;8.752;2022-11-15T17:13:04;11.80;99.90
46137;DHT22;31871;49.418;8.752;2022-11-15T17:15:30;11.80;99.90
46137;DHT22;31871;49.418;8.752;2022-11-15T17:17:55;11.90;99.90
46137;DHT22;31871;49.418;8.752;2022-11-15T17:20:22;11.90;99.90
46137;DHT22;31871;49.418;8.752;2022-11-15T17:22:47;11.90;99.90
46137;DHT22;31871;49.418;8.752;2022-11-15T17:25:13;12.00;99.90
46137;DHT22;31871;49.418;8.752;2022-11-15T17:27:39;11.90;99.90
46137;DHT22;31871;49.418;8.752;2022-11-15T17:30:05;11.80;99.90
46137;DHT22;31871;49.418;8.752;2022-11-15T17:32:31;11.80;99.90
46137;DHT22;31871;49.418;8.752;2022-11-15T17:34:56;11.70;99.90
46137;DHT22;31871;49.418;8.752;2022-11-15T17:37:22;11.70;99.90
46137;DHT22;31871;49.418;8.752;2022-11-15T17:39:47;11.70;99.90